createdAt,value
2023-05-12T00:01:49.721Z,7.68
2023-05-12T00:04:16.623Z,8.18
2023-05-12T00:06:43.316Z,6.43
2023-05-12T00:09:10.058Z,7.60
2023-05-12T00:11:37.889Z,7.65
2023-05-12T00:14:04.615Z,8.48
2023-05-12T00:16:31.537Z,7.68
2023-05-12T00:18:58.266Z,12.32
2023-05-12T00:21:25.041Z,8.48
2023-05-12T00:23:51.708Z,7.35
2023-05-12T00:26:18.409Z,8.32
2023-05-12T00:28:45.415Z,7.97
2023-05-12T00:31:12.135Z,7.32
2023-05-12T00:33:38.825Z,8.80
2023-05-12T00:36:06.050Z,11.30
2023-05-12T00:38:34.267Z,9.07
2023-05-12T00:41:01.654Z,8.20
2023-05-12T00:43:28.364Z,7.93
2023-05-12T00:45:55.023Z,8.52
2023-05-12T00:48:21.638Z,8.55
2023-05-12T00:50:48.489Z,8.27
2023-05-12T00:53:15.267Z,9.55
2023-05-12T00:55:42.210Z,10.05
2023-05-12T00:58:09.093Z,11.02
2023-05-12T01:00:35.831Z,8.18
2023-05-12T01:03:02.780Z,7.97
2023-05-12T01:05:32.108Z,8.25
2023-05-12T01:07:59.775Z,7.70
2023-05-12T01:10:26.383Z,9.82
2023-05-12T01:12:53.202Z,10.80
2023-05-12T01:15:19.880Z,11.93
2023-05-12T01:17:50.274Z,8.95
2023-05-12T01:20:17.231Z,10.05
2023-05-12T01:22:43.960Z,9.55
2023-05-12T01:25:11.987Z,10.55
2023-05-12T01:27:39.709Z,10.63
2023-05-12T01:30:06.895Z,11.73
2023-05-12T01:32:33.748Z,11.40
2023-05-12T01:35:00.769Z,9.85
2023-05-12T01:37:27.471Z,12.10
2023-05-12T01:39:54.353Z,11.25
2023-05-12T01:42:21.081Z,12.15
2023-05-12T01:44:47.756Z,11.65
2023-05-12T01:47:15.709Z,11.95
2023-05-12T01:49:42.459Z,15.23
2023-05-12T01:52:09.147Z,11.82
2023-05-12T01:54:36.023Z,12.65
2023-05-12T01:57:02.705Z,13.65
2023-05-12T01:59:29.455Z,8.43
2023-05-12T02:01:56.184Z,10.38
2023-05-12T02:04:22.940Z,10.48
2023-05-12T02:06:49.631Z,10.73
2023-05-12T02:09:16.281Z,10.40
2023-05-12T02:11:43.129Z,14.05
2023-05-12T02:14:09.840Z,11.82
2023-05-12T02:16:36.587Z,11.13
2023-05-12T02:19:03.291Z,10.77
2023-05-12T02:21:29.966Z,12.00
2023-05-12T02:23:56.712Z,9.73
2023-05-12T02:26:23.372Z,9.60
2023-05-12T02:28:50.000Z,13.07
2023-05-12T02:31:16.686Z,10.00
2023-05-12T02:33:43.384Z,9.07
2023-05-12T02:36:10.081Z,9.63
2023-05-12T02:38:36.757Z,10.57
2023-05-12T02:41:03.426Z,8.10
2023-05-12T02:43:30.038Z,7.72
2023-05-12T02:45:56.692Z,8.52
2023-05-12T02:48:23.359Z,10.50
2023-05-12T02:50:50.028Z,10.05
2023-05-12T02:53:16.843Z,8.75
2023-05-12T02:55:43.469Z,9.70
2023-05-12T02:58:10.396Z,10.70
2023-05-12T03:00:37.008Z,11.43
2023-05-12T03:03:03.861Z,11.38
2023-05-12T03:05:30.716Z,11.10
2023-05-12T03:07:57.411Z,10.50
2023-05-12T03:10:24.013Z,13.07
2023-05-12T03:12:50.752Z,13.10
2023-05-12T03:15:17.747Z,10.57
2023-05-12T03:17:44.396Z,10.73
2023-05-12T03:20:12.104Z,9.93
2023-05-12T03:22:38.744Z,10.32
2023-05-12T03:25:06.067Z,10.48
2023-05-12T03:27:32.995Z,10.15
2023-05-12T03:30:01.134Z,10.85
2023-05-12T03:32:28.607Z,9.57
2023-05-12T03:34:55.374Z,11.23
2023-05-12T03:37:22.088Z,10.80
2023-05-12T03:39:48.792Z,11.07
2023-05-12T03:42:15.649Z,10.88
2023-05-12T03:44:42.658Z,12.50
2023-05-12T03:47:09.391Z,8.50
2023-05-12T03:49:36.157Z,9.68
2023-05-12T03:52:02.839Z,11.05
2023-05-12T03:54:29.523Z,13.32
2023-05-12T03:56:56.256Z,10.80
2023-05-12T03:59:23.075Z,11.32
2023-05-12T04:01:49.763Z,11.38
2023-05-12T04:04:16.681Z,10.25
2023-05-12T04:06:43.399Z,11.55
2023-05-12T04:09:10.328Z,10.68
2023-05-12T04:11:37.050Z,12.05
2023-05-12T04:14:03.786Z,9.65
2023-05-12T04:16:30.487Z,11.95
2023-05-12T04:18:57.495Z,10.50
2023-05-12T04:21:24.326Z,9.98
2023-05-12T04:23:52.723Z,10.88
2023-05-12T04:26:19.396Z,11.15
2023-05-12T04:28:46.617Z,10.23
2023-05-12T04:31:13.346Z,10.90
2023-05-12T04:33:39.969Z,15.85
2023-05-12T04:36:07.058Z,12.65
2023-05-12T04:38:33.820Z,12.80
2023-05-12T04:41:00.805Z,9.25
2023-05-12T04:45:59.832Z,9.20
2023-05-12T04:48:27.402Z,10.20
2023-05-12T04:50:54.097Z,9.70
2023-05-12T04:53:20.864Z,9.32
2023-05-12T04:55:47.528Z,7.60
2023-05-12T04:58:14.132Z,7.88
2023-05-12T05:00:41.483Z,9.95
2023-05-12T05:03:08.268Z,10.02
2023-05-12T05:05:34.958Z,5.82
2023-05-12T05:08:01.589Z,8.05
2023-05-12T05:10:28.236Z,6.15
2023-05-12T05:12:54.856Z,6.82
2023-05-12T05:15:21.677Z,8.80
2023-05-12T05:17:49.611Z,9.00
2023-05-12T05:20:16.782Z,7.82
2023-05-12T05:22:43.654Z,8.20
2023-05-12T05:25:10.799Z,5.63
2023-05-12T05:27:38.757Z,5.47
2023-05-12T05:30:07.980Z,9.77
2023-05-12T05:32:40.210Z,10.25
2023-05-12T05:35:08.039Z,4.78
2023-05-12T05:37:34.848Z,6.15
2023-05-12T05:40:01.564Z,7.07
2023-05-12T05:42:28.327Z,3.58
2023-05-12T05:44:55.178Z,7.20
2023-05-12T05:47:21.913Z,4.78
2023-05-12T05:49:48.530Z,5.07
2023-05-12T05:52:15.309Z,3.50
2023-05-12T05:54:42.187Z,3.92
2023-05-12T05:57:08.838Z,3.15
2023-05-12T05:59:35.476Z,3.35
2023-05-12T06:02:02.182Z,3.72
2023-05-12T06:04:29.245Z,3.63
2023-05-12T06:06:56.023Z,4.07
2023-05-12T06:09:22.765Z,2.25
2023-05-12T06:11:49.529Z,3.30
2023-05-12T06:14:17.089Z,6.43
2023-05-12T06:16:43.981Z,4.38
2023-05-12T06:19:11.860Z,4.35
2023-05-12T06:21:38.855Z,4.90
2023-05-12T06:24:05.927Z,5.50
2023-05-12T06:26:32.657Z,4.82
2023-05-12T06:28:59.374Z,6.20
2023-05-12T06:31:26.113Z,5.75
2023-05-12T06:33:52.813Z,6.20
2023-05-12T06:36:19.505Z,5.47
2023-05-12T06:38:46.781Z,4.65
2023-05-12T06:41:13.440Z,5.28
2023-05-12T06:43:40.086Z,7.40
2023-05-12T06:46:12.581Z,5.85
2023-05-12T06:48:42.021Z,5.78
2023-05-12T06:51:09.289Z,6.80
2023-05-12T06:53:38.088Z,7.05
2023-05-12T06:56:05.695Z,6.32
2023-05-12T06:58:32.575Z,5.80
2023-05-12T07:00:59.482Z,5.18
2023-05-12T07:03:26.276Z,5.65
2023-05-12T07:05:53.068Z,6.97
2023-05-12T07:08:19.745Z,7.50
2023-05-12T07:10:46.379Z,14.63
2023-05-12T07:13:13.264Z,4.05
2023-05-12T07:15:40.204Z,4.15
2023-05-12T07:18:06.882Z,3.83
2023-05-12T07:20:34.195Z,3.15
2023-05-12T07:23:00.912Z,2.72
2023-05-12T07:25:28.674Z,3.70
2023-05-12T07:27:55.361Z,2.95
2023-05-12T07:30:22.416Z,4.65
2023-05-12T07:32:49.197Z,5.05
2023-05-12T07:35:15.986Z,4.10
2023-05-12T07:37:42.828Z,3.30
2023-05-12T07:40:10.135Z,3.38
2023-05-12T07:42:36.828Z,2.80
2023-05-12T07:45:04.345Z,7.55
2023-05-12T07:47:31.044Z,7.60
2023-05-12T07:49:58.034Z,5.05
2023-05-12T07:52:24.837Z,3.97
2023-05-12T07:54:51.614Z,4.43
2023-05-12T07:57:18.382Z,5.45
2023-05-12T07:59:45.100Z,5.97
2023-05-12T08:02:11.778Z,4.47
2023-05-12T08:04:38.509Z,5.03
2023-05-12T08:07:05.235Z,7.45
2023-05-12T08:09:32.121Z,9.70
2023-05-12T08:11:58.799Z,7.93
2023-05-12T08:14:25.726Z,7.47
2023-05-12T08:16:52.491Z,10.05
2023-05-12T08:19:19.274Z,8.30
2023-05-12T08:21:45.983Z,6.72
2023-05-12T08:24:12.642Z,6.72
2023-05-12T08:26:39.300Z,6.22
2023-05-12T08:29:06.958Z,6.95
2023-05-12T08:31:33.811Z,3.88
2023-05-12T08:34:09.889Z,7.82
2023-05-12T08:36:38.550Z,6.97
2023-05-12T08:39:05.317Z,9.50
2023-05-12T08:41:42.044Z,7.38
2023-05-12T08:44:08.964Z,2.80
2023-05-12T08:46:35.768Z,6.38
2023-05-12T08:49:03.009Z,4.05
2023-05-12T08:51:31.627Z,7.30
2023-05-12T08:53:58.384Z,7.60
2023-05-12T08:58:56.412Z,6.85
2023-05-12T09:01:23.219Z,6.85
2023-05-12T09:03:52.384Z,7.80
2023-05-12T09:06:19.053Z,4.40
2023-05-12T09:08:46.245Z,3.88
2023-05-12T09:11:13.563Z,4.90
2023-05-12T09:14:00.991Z,4.65
2023-05-12T09:16:31.322Z,5.22
2023-05-12T09:18:59.103Z,6.15
2023-05-12T09:21:26.439Z,5.28
2023-05-12T09:24:03.183Z,4.78
2023-05-12T09:26:29.979Z,11.35
2023-05-12T09:29:08.727Z,10.70
2023-05-12T09:31:35.722Z,5.85
2023-05-12T09:34:07.415Z,4.43
2023-05-12T09:36:34.445Z,3.80
2023-05-12T09:39:04.802Z,3.17
2023-05-12T09:41:34.906Z,3.00
2023-05-12T09:44:01.815Z,5.90
2023-05-12T09:46:28.607Z,2.80
2023-05-12T09:48:56.811Z,5.05
2023-05-12T09:51:23.579Z,2.00
2023-05-12T09:53:50.212Z,2.55
2023-05-12T09:56:17.478Z,2.50
2023-05-12T09:58:46.344Z,2.60
2023-05-12T10:01:22.760Z,3.17
2023-05-12T10:03:52.746Z,1.45
2023-05-12T10:06:29.821Z,3.08
2023-05-12T10:09:09.267Z,3.88
2023-05-12T10:11:35.977Z,5.68
2023-05-12T10:14:02.786Z,9.38
2023-05-12T10:16:31.891Z,8.63
2023-05-12T10:18:58.682Z,8.65
2023-05-12T10:21:26.143Z,5.90
2023-05-12T10:23:53.198Z,11.38
2023-05-12T10:26:19.839Z,5.82
2023-05-12T10:28:46.467Z,6.85
2023-05-12T10:31:13.120Z,8.25
2023-05-12T10:33:39.819Z,7.68
2023-05-12T10:36:17.264Z,7.75
2023-05-12T10:38:43.961Z,7.03
2023-05-12T10:41:10.938Z,9.35
2023-05-12T10:43:42.742Z,8.25
2023-05-12T10:46:16.613Z,9.40
2023-05-12T10:49:04.142Z,8.10
2023-05-12T10:51:33.179Z,3.63
2023-05-12T10:54:06.482Z,7.28
2023-05-12T10:59:25.215Z,2.47
2023-05-12T11:02:06.630Z,1.95
2023-05-12T11:04:56.112Z,3.80
2023-05-12T11:07:24.922Z,2.05
2023-05-12T11:09:58.451Z,1.00
2023-05-12T11:12:28.785Z,1.48
2023-05-12T11:14:55.591Z,2.13
2023-05-12T11:17:22.540Z,5.68
2023-05-12T11:19:50.347Z,2.15
2023-05-12T11:22:19.844Z,2.75
2023-05-12T11:24:47.224Z,3.00
2023-05-12T11:27:18.249Z,1.50
2023-05-12T11:29:47.200Z,1.23
2023-05-12T11:32:15.607Z,3.60
2023-05-12T11:34:42.318Z,4.93
2023-05-12T11:37:09.206Z,4.38
2023-05-12T11:39:36.257Z,2.42
2023-05-12T11:42:12.079Z,2.00
2023-05-12T11:44:47.970Z,9.77
2023-05-12T11:47:15.471Z,3.03
2023-05-12T11:49:55.480Z,2.28
2023-05-12T11:52:23.265Z,10.30
2023-05-12T11:54:51.527Z,3.78
2023-05-12T11:57:31.790Z,3.67
2023-05-12T12:00:00.613Z,5.28
2023-05-12T12:02:27.628Z,8.02
2023-05-12T12:04:54.429Z,11.02
2023-05-12T12:07:36.498Z,7.10
2023-05-12T12:10:18.777Z,5.93
2023-05-12T12:12:45.995Z,4.15
2023-05-12T12:15:13.034Z,4.28
2023-05-12T12:17:40.371Z,3.95
2023-05-12T12:20:08.343Z,7.28
2023-05-12T12:22:35.393Z,4.35
2023-05-12T12:25:02.710Z,4.13
2023-05-12T12:27:29.643Z,5.47
2023-05-12T12:29:56.622Z,5.95
2023-05-12T12:32:23.560Z,5.53
2023-05-12T12:34:53.477Z,5.85
2023-05-12T12:37:20.238Z,8.73
2023-05-12T12:39:47.868Z,6.90
2023-05-12T12:42:15.633Z,10.77
2023-05-12T12:44:43.025Z,5.25
2023-05-12T12:47:09.775Z,5.05
2023-05-12T12:49:36.465Z,5.85
2023-05-12T12:52:03.214Z,6.00
2023-05-12T12:54:30.074Z,7.90
2023-05-12T12:56:56.948Z,7.15
2023-05-12T12:59:24.113Z,7.30
2023-05-12T13:01:50.780Z,6.47
2023-05-12T13:04:22.220Z,8.05
2023-05-12T13:06:49.504Z,8.35
2023-05-12T13:09:19.052Z,8.55
2023-05-12T13:11:47.181Z,5.13
2023-05-12T13:14:14.129Z,6.13
2023-05-12T13:16:40.902Z,9.00
2023-05-12T13:19:08.155Z,9.02
2023-05-12T13:21:35.015Z,7.90
2023-05-12T13:24:01.749Z,9.20
2023-05-12T13:26:28.765Z,6.65
2023-05-12T13:28:55.430Z,7.60
2023-05-12T13:31:22.241Z,7.25
2023-05-12T13:33:49.206Z,7.63
2023-05-12T13:36:15.887Z,16.70
2023-05-12T13:38:42.591Z,7.88
2023-05-12T13:41:09.283Z,11.32
2023-05-12T13:43:35.997Z,7.30
2023-05-12T13:46:08.172Z,8.20
2023-05-12T13:48:35.611Z,11.43
2023-05-12T13:51:02.359Z,8.20
2023-05-12T13:53:29.259Z,9.18
2023-05-12T13:55:55.924Z,10.75
2023-05-12T13:58:22.532Z,7.68
2023-05-12T14:00:49.318Z,8.10
2023-05-12T14:03:16.500Z,8.88
2023-05-12T14:05:43.274Z,13.35
2023-05-12T14:08:10.344Z,9.20
2023-05-12T14:10:37.200Z,10.52
2023-05-12T14:13:03.854Z,11.30
2023-05-12T14:15:47.208Z,11.55
2023-05-12T14:18:15.743Z,7.90
2023-05-12T14:20:42.534Z,12.60
2023-05-12T14:23:09.309Z,8.68
2023-05-12T14:25:36.113Z,9.07
2023-05-12T14:28:03.494Z,7.57
2023-05-12T14:30:30.408Z,10.80
2023-05-12T14:32:57.297Z,10.38
2023-05-12T14:35:27.483Z,10.40
2023-05-12T14:37:54.814Z,8.85
2023-05-12T14:40:32.401Z,10.18
2023-05-12T14:42:59.918Z,11.48
2023-05-12T14:45:26.921Z,7.93
2023-05-12T14:47:53.796Z,9.18
2023-05-12T14:50:20.752Z,9.70
2023-05-12T14:52:47.741Z,11.93
2023-05-12T14:55:15.009Z,8.77
2023-05-12T14:57:41.850Z,9.02
2023-05-12T15:00:10.732Z,8.38
2023-05-12T15:02:37.951Z,9.30
2023-05-12T15:05:07.025Z,22.15
2023-05-12T15:07:33.789Z,10.95
2023-05-12T15:10:01.043Z,9.07
2023-05-12T15:12:27.757Z,10.85
2023-05-12T15:14:56.126Z,12.07
2023-05-12T15:17:23.213Z,10.82
2023-05-12T15:19:50.197Z,15.32
2023-05-12T15:22:16.889Z,13.02
2023-05-12T15:24:43.708Z,10.02
2023-05-12T15:27:10.498Z,9.65
2023-05-12T15:29:38.845Z,11.57
2023-05-12T15:32:06.003Z,10.15
2023-05-12T15:34:32.848Z,14.98
2023-05-12T15:36:59.487Z,8.82
2023-05-12T15:39:26.353Z,10.57
2023-05-12T15:41:53.168Z,13.07
2023-05-12T15:44:20.129Z,10.50
2023-05-12T15:46:47.192Z,9.60
2023-05-12T15:49:14.299Z,8.82
2023-05-12T15:51:41.086Z,9.77
2023-05-12T15:54:09.563Z,9.13
2023-05-12T15:56:37.258Z,6.85
2023-05-12T15:59:05.162Z,10.20
2023-05-12T16:01:32.063Z,7.78
2023-05-12T16:03:58.869Z,6.38
2023-05-12T16:06:25.660Z,8.48
2023-05-12T16:08:53.375Z,11.48
2023-05-12T16:11:20.062Z,10.05
2023-05-12T16:13:46.856Z,14.05
2023-05-12T16:16:13.537Z,8.95
2023-05-12T16:18:40.277Z,9.52
2023-05-12T16:21:08.215Z,8.48
2023-05-12T16:23:35.174Z,8.93
2023-05-12T16:26:01.832Z,11.80
2023-05-12T16:28:28.621Z,7.63
2023-05-12T16:30:56.360Z,8.48
2023-05-12T16:33:23.331Z,16.40
2023-05-12T16:35:50.628Z,7.47
2023-05-12T16:38:17.572Z,8.88
2023-05-12T16:40:44.308Z,6.80
2023-05-12T16:43:11.111Z,7.43
2023-05-12T16:45:38.145Z,6.35
2023-05-12T16:48:05.006Z,5.10
2023-05-12T16:50:32.274Z,5.53
2023-05-12T16:52:58.956Z,6.57
2023-05-12T16:55:25.786Z,13.88
2023-05-12T16:57:52.429Z,8.50
2023-05-12T17:00:19.416Z,4.90
2023-05-12T17:02:46.300Z,5.88
2023-05-12T17:05:12.996Z,5.10
2023-05-12T17:07:39.628Z,4.38
2023-05-12T17:10:06.661Z,6.53
2023-05-12T17:12:33.385Z,7.00
2023-05-12T17:15:07.577Z,5.45
2023-05-12T17:17:36.999Z,4.72
2023-05-12T17:20:04.224Z,5.00
2023-05-12T17:22:32.104Z,5.18
2023-05-12T17:24:58.856Z,8.45
2023-05-12T17:27:25.833Z,6.38
2023-05-12T17:29:52.551Z,6.45
2023-05-12T17:32:19.274Z,6.15
2023-05-12T17:34:49.085Z,7.13
2023-05-12T17:37:15.828Z,6.07
2023-05-12T17:39:44.310Z,8.32
2023-05-12T17:42:11.021Z,7.65
2023-05-12T17:44:37.718Z,6.13
2023-05-12T17:47:04.858Z,9.38
2023-05-12T17:49:31.842Z,9.68
2023-05-12T17:51:58.563Z,8.25
2023-05-12T17:54:25.313Z,9.30
2023-05-12T17:56:51.979Z,8.35
2023-05-12T17:59:18.794Z,10.15
2023-05-12T18:01:45.513Z,7.32
2023-05-12T18:04:12.183Z,9.18
2023-05-12T18:06:38.853Z,6.25
2023-05-12T18:09:06.771Z,6.13
2023-05-12T18:11:34.261Z,4.25
2023-05-12T18:14:02.434Z,6.15
2023-05-12T18:16:29.772Z,8.68
2023-05-12T18:18:57.042Z,7.82
2023-05-12T18:21:23.785Z,6.70
2023-05-12T18:23:50.563Z,5.65
2023-05-12T18:26:17.303Z,7.45
2023-05-12T18:28:43.923Z,6.88
2023-05-12T18:33:40.791Z,7.45
2023-05-12T18:36:07.611Z,6.75
2023-05-12T18:38:34.467Z,8.05
2023-05-12T18:41:01.119Z,7.65
2023-05-12T18:43:27.870Z,5.55
2023-05-12T18:45:54.556Z,6.57
2023-05-12T18:48:21.356Z,10.52
2023-05-12T18:50:47.980Z,6.53
2023-05-12T18:53:14.601Z,6.65
2023-05-12T18:55:41.229Z,6.82
2023-05-12T18:58:08.100Z,8.48
2023-05-12T19:00:35.507Z,10.68
2023-05-12T19:03:03.295Z,6.07
2023-05-12T19:05:30.106Z,6.95
2023-05-12T19:07:57.122Z,6.63
2023-05-12T19:10:23.853Z,12.48
2023-05-12T19:12:51.044Z,5.90
2023-05-12T19:15:17.874Z,5.78
2023-05-12T19:17:44.764Z,8.05
2023-05-12T19:20:11.579Z,7.15
2023-05-12T19:22:38.315Z,6.10
2023-05-12T19:25:05.967Z,8.00
2023-05-12T19:27:32.731Z,5.97
2023-05-12T19:30:02.113Z,9.15
2023-05-12T19:32:29.025Z,7.00
2023-05-12T19:34:56.054Z,5.75
2023-05-12T19:37:22.806Z,7.13
2023-05-12T19:39:50.198Z,7.88
2023-05-12T19:42:16.861Z,8.85
2023-05-12T19:44:43.505Z,7.82
2023-05-12T19:47:10.219Z,8.43
2023-05-12T19:49:37.120Z,7.75
2023-05-12T19:52:04.581Z,9.02
2023-05-12T19:54:31.597Z,7.88
2023-05-12T19:56:58.660Z,10.68
2023-05-12T19:59:26.752Z,9.82
2023-05-12T20:01:53.519Z,8.05
2023-05-12T20:04:20.174Z,8.88
2023-05-12T20:06:46.868Z,11.75
2023-05-12T20:09:13.526Z,16.63
2023-05-12T20:11:40.220Z,8.55
2023-05-12T20:14:07.051Z,8.88
2023-05-12T20:16:33.828Z,13.23
2023-05-12T20:19:02.639Z,7.68
2023-05-12T20:21:31.348Z,9.88
2023-05-12T20:23:58.036Z,8.43
2023-05-12T20:26:24.730Z,8.10
2023-05-12T20:28:51.730Z,8.07
2023-05-12T20:31:18.851Z,8.68
2023-05-12T20:33:45.647Z,8.85
2023-05-12T20:36:12.328Z,7.85
2023-05-12T20:38:39.764Z,9.02
2023-05-12T20:41:07.006Z,7.40
2023-05-12T20:43:33.858Z,9.55
2023-05-12T20:46:03.501Z,10.23
2023-05-12T20:48:30.352Z,7.85
2023-05-12T20:50:57.493Z,9.93
2023-05-12T20:53:24.302Z,8.20
2023-05-12T20:55:51.002Z,7.35
2023-05-12T20:58:17.655Z,8.23
2023-05-12T21:00:44.360Z,8.93
2023-05-12T21:03:16.739Z,7.40
2023-05-12T21:05:47.638Z,9.38
2023-05-12T21:08:14.557Z,8.88
2023-05-12T21:10:41.484Z,9.02
2023-05-12T21:13:08.197Z,8.27
2023-05-12T21:15:35.278Z,8.32
2023-05-12T21:18:01.974Z,8.90
2023-05-12T21:20:28.742Z,8.88
2023-05-12T21:22:56.819Z,9.43
2023-05-12T21:25:23.693Z,10.32
2023-05-12T21:27:50.432Z,8.95
2023-05-12T21:30:17.157Z,8.73
2023-05-12T21:32:44.205Z,8.90
2023-05-12T21:35:11.172Z,8.75
2023-05-12T21:37:37.931Z,7.95
2023-05-12T21:40:05.163Z,8.38
2023-05-12T21:42:31.860Z,9.35
2023-05-12T21:44:58.804Z,8.93
2023-05-12T21:47:25.662Z,7.90
2023-05-12T21:49:54.888Z,8.23
2023-05-12T21:52:21.722Z,7.68
2023-05-12T21:54:48.514Z,7.57
2023-05-12T21:57:15.274Z,8.88
2023-05-12T21:59:42.021Z,8.90
2023-05-12T22:02:08.730Z,7.32
2023-05-12T22:04:35.342Z,8.40
2023-05-12T22:07:02.048Z,8.13
2023-05-12T22:09:30.968Z,7.55
2023-05-12T22:11:57.872Z,6.72
2023-05-12T22:14:24.765Z,7.30
2023-05-12T22:16:51.648Z,11.82
2023-05-12T22:19:18.471Z,7.07
2023-05-12T22:21:45.682Z,7.10
2023-05-12T22:24:12.319Z,8.57
2023-05-12T22:26:39.183Z,6.40
2023-05-12T22:29:05.834Z,8.90
2023-05-12T22:31:32.714Z,7.03
2023-05-12T22:33:59.423Z,9.90
2023-05-12T22:36:26.037Z,7.50
2023-05-12T22:38:52.724Z,6.32
2023-05-12T22:41:19.500Z,9.27
2023-05-12T22:43:46.214Z,8.82
2023-05-12T22:46:12.972Z,8.70
2023-05-12T22:48:39.854Z,8.15
2023-05-12T22:51:06.760Z,7.60
2023-05-12T22:53:35.651Z,7.38
2023-05-12T22:56:02.906Z,7.25
2023-05-12T22:58:29.556Z,6.40
2023-05-12T23:00:56.282Z,5.72
2023-05-12T23:03:22.921Z,6.78
2023-05-12T23:05:49.591Z,5.68
2023-05-12T23:08:16.456Z,5.93
2023-05-12T23:10:43.180Z,6.85
2023-05-12T23:13:09.815Z,6.25
2023-05-12T23:15:36.535Z,6.97
2023-05-12T23:18:03.268Z,6.00
2023-05-12T23:20:30.166Z,7.50
2023-05-12T23:22:56.818Z,6.15
2023-05-12T23:25:23.715Z,6.93
2023-05-12T23:27:50.444Z,7.15
2023-05-12T23:30:17.135Z,6.95
2023-05-12T23:32:43.889Z,8.90
2023-05-12T23:35:10.760Z,7.53
2023-05-12T23:37:37.418Z,7.63
2023-05-12T23:40:05.247Z,10.25
2023-05-12T23:42:31.889Z,8.60
2023-05-12T23:44:58.555Z,8.50
2023-05-12T23:47:25.298Z,11.80
2023-05-12T23:49:51.940Z,7.72
2023-05-12T23:52:18.598Z,10.98
2023-05-12T23:54:45.228Z,8.18
2023-05-12T23:57:11.810Z,7.85
2023-05-12T23:59:38.834Z,8.48
